Fredericton Junction, Canada
Current Conditions -  °F | °C
As of 12:00 AM on Sunday 26 Oct 2014 (Local Time) from CYFC Reporting Station
Overcast Overcast  
Wind Chill: 38°   Ceiling: 1100
Heat Index: 41°   Visibility: 9mi
Dew Point: 41°   Wind: 5mph
Humidity: 100%   Direction: 100°E
Pressure: 29.53"   Gusts: NA
Location:  45.67°N, 66.62°W
Report Text: CYFC 260300Z AUTO 10004KT 9SM BKN011 OVC065 05/05 A2953 RMK SLP999
Loading
Personal Weather Stations






























Interactive Weather Map
Tropical Storm Tracking
New forecast layout! Learn more

10-Day Weather Forecast

Advertisements
Track Severe Weather on mobile